Weather at Sedes Air Base

Public forecast

Using degrees Celsius for public forecast. Weather courtesy of forecast.io.

Closest aviation weather report (METAR) to Sedes Air Base

Closest report is Thessaloniki Macedonia International Airport, 2.7 nm (4.9 km) WSW.

2024/05/22 03:50 (retrieved 40 minutes ago)

LGTS 220350Z 10005KT CAVOK 15/13 Q1011 NOSIG

Closest aviation forecast (TAF) to Sedes Air Base

Forecast is more than 6 hours old.

Closest forecast is Kukës International Airport, 148.3 nm (274.7 km) NW.

2024/05/21 18:00 Ammendment (retrieved 10 hours ago)

TAF AMD LAKU 211904Z 2118/2218 CNL